KDTA

Delta Municipal Airport

Delta, Utah, USA
METAR KDTA 161015Z AUTO 00000KT 10SM CLR M05/M10 A2984 RMK AO1
Observed Flight Rules
Dec-16 @ 10:15 UTC (38 minutes ago) Visual Flight Rules
Wind Visibility Clouds
Calm 10 miles
  • Clear skies
Temperatures Readings
Current -5°C / 23°F
Dewpoint -10°C / 14°F
Humidity 68%
Altimeter 29.84" Hg
Pressure 1010 hPa
Elevation 1402
METAR KDTA 161015Z AUTO 00000KT 10SM CLR M05/M10 A2984 RMK AO1
Observed Flight Rules
Dec-16 @ 10:15 UTC
(38 minutes ago)
VFR
Wind Visibility
Calm 10 miles
Clouds
  • Clear skies
Temperature Dewpoint
-5°C / 23°F -10°C / 14°F
Humidity Altimeter Pressure
68% 29.84" Hg 1010 hPa